createdAt,value
2023-09-08T00:00:53.689Z,69.29
2023-09-08T00:01:53.766Z,69.09
2023-09-08T00:02:53.782Z,69.09
2023-09-08T00:03:53.792Z,69.29
2023-09-08T00:04:53.696Z,68.99
2023-09-08T00:05:53.689Z,68.99
2023-09-08T00:06:53.731Z,69.19
2023-09-08T00:07:53.698Z,70.15
2023-09-08T00:08:53.717Z,69.96
2023-09-08T00:09:53.701Z,69.29
2023-09-08T00:10:53.738Z,69.38
2023-09-08T00:11:53.700Z,69.48
2023-09-08T00:12:53.711Z,69.87
2023-09-08T00:13:53.756Z,69.09
2023-09-08T00:14:53.710Z,69.87
2023-09-08T00:15:53.746Z,70.25
2023-09-08T00:16:53.755Z,69.67
2023-09-08T00:17:53.764Z,69.57
2023-09-08T00:18:53.737Z,69.83
2023-09-08T00:19:53.717Z,69.73
2023-09-08T00:20:53.723Z,69.83
2023-09-08T00:21:53.734Z,69.93
2023-09-08T00:22:53.768Z,69.93
2023-09-08T00:23:53.726Z,69.64
2023-09-08T00:24:53.735Z,69.64
2023-09-08T00:25:53.761Z,69.73
2023-09-08T00:26:53.727Z,69.64
2023-09-08T00:27:53.730Z,69.73
2023-09-08T00:28:53.742Z,70.02
2023-09-08T00:29:53.739Z,70.21
2023-09-08T00:30:53.736Z,70.21
2023-09-08T00:31:53.733Z,70.31
2023-09-08T00:32:53.870Z,70.31
2023-09-08T00:33:53.841Z,70.12
2023-09-08T00:34:53.763Z,70.02
2023-09-08T00:35:53.740Z,70.41
2023-09-08T00:36:53.751Z,70.21
2023-09-08T00:37:53.752Z,69.93
2023-09-08T00:38:53.798Z,70.41
2023-09-08T00:39:53.777Z,70.31
2023-09-08T00:40:53.765Z,70.12
2023-09-08T00:41:53.753Z,70.41
2023-09-08T00:42:53.762Z,70.31
2023-09-08T00:43:53.757Z,70.12
2023-09-08T00:44:53.762Z,70.21
2023-09-08T00:45:53.839Z,70.70
2023-09-08T00:46:53.761Z,70.21
2023-09-08T00:47:53.843Z,70.31
2023-09-08T00:48:53.762Z,70.41
2023-09-08T00:49:53.766Z,70.79
2023-09-08T00:50:53.803Z,71.08
2023-09-08T00:51:53.767Z,70.79
2023-09-08T00:52:53.777Z,70.79
2023-09-08T00:53:53.814Z,70.79
2023-09-08T00:54:53.776Z,70.89
2023-09-08T00:55:53.776Z,70.89
2023-09-08T00:56:53.781Z,71.08
2023-09-08T00:57:53.791Z,70.98
2023-09-08T00:58:53.786Z,71.08
2023-09-08T00:59:53.783Z,70.98
2023-09-08T01:00:53.829Z,70.98
2023-09-08T01:01:53.785Z,70.89
2023-09-08T01:02:53.829Z,70.79
2023-09-08T01:03:53.908Z,71.37
2023-09-08T01:04:53.845Z,70.98
2023-09-08T01:05:53.822Z,71.18
2023-09-08T01:06:53.819Z,71.24
2023-09-08T01:07:53.788Z,71.04
2023-09-08T01:08:54.011Z,71.66
2023-09-08T01:09:53.901Z,71.43
2023-09-08T01:10:53.809Z,71.62
2023-09-08T01:11:53.818Z,71.34
2023-09-08T01:12:53.798Z,70.98
2023-09-08T01:13:53.801Z,71.24
2023-09-08T01:14:53.846Z,72.20
2023-09-08T01:15:53.871Z,71.91
2023-09-08T01:16:53.903Z,72.11
2023-09-08T01:17:53.908Z,71.81
2023-09-08T01:18:53.987Z,72.01
2023-09-08T01:19:53.805Z,72.49
2023-09-08T01:20:53.810Z,72.30
2023-09-08T01:21:53.819Z,72.49
2023-09-08T01:22:53.837Z,72.68
2023-09-08T01:23:53.820Z,72.78
2023-09-08T01:24:53.824Z,72.78
2023-09-08T01:25:53.829Z,72.97
2023-09-08T01:26:53.830Z,72.30
2023-09-08T01:27:53.831Z,72.59
2023-09-08T01:28:53.825Z,72.39
2023-09-08T01:29:53.823Z,72.97
2023-09-08T01:30:53.928Z,72.68
2023-09-08T01:31:53.923Z,72.97
2023-09-08T01:32:53.876Z,72.88
2023-09-08T01:33:53.870Z,72.68
2023-09-08T01:34:53.849Z,72.39
2023-09-08T01:35:53.833Z,72.97
2023-09-08T01:36:53.848Z,72.59
2023-09-08T01:37:53.834Z,72.78
2023-09-08T01:38:53.883Z,72.78
2023-09-08T01:39:53.843Z,72.88
2023-09-08T01:40:53.845Z,72.68
2023-09-08T01:41:53.835Z,72.49
2023-09-08T01:42:53.836Z,72.68
2023-09-08T01:43:53.837Z,72.78
2023-09-08T01:44:53.844Z,72.59
2023-09-08T01:45:53.888Z,72.78
2023-09-08T01:46:53.938Z,72.59
2023-09-08T01:47:53.881Z,72.78
2023-09-08T01:48:53.904Z,72.88
2023-09-08T01:49:53.845Z,72.65
2023-09-08T01:50:53.846Z,72.68
2023-09-08T01:51:53.900Z,72.94
2023-09-08T01:52:53.861Z,73.74
2023-09-08T01:53:53.855Z,73.32
2023-09-08T01:54:53.958Z,72.65
2023-09-08T01:55:53.855Z,73.22
2023-09-08T01:56:53.862Z,73.32
2023-09-08T01:57:53.940Z,73.51
2023-09-08T01:58:53.880Z,73.32
2023-09-08T01:59:53.856Z,73.80
2023-09-08T02:00:53.936Z,73.51
2023-09-08T02:01:53.888Z,73.42
2023-09-08T02:02:53.883Z,73.22
2023-09-08T02:03:53.861Z,72.94
2023-09-08T02:04:53.936Z,73.32
2023-09-08T02:05:53.861Z,73.22
2023-09-08T02:06:53.876Z,73.51
2023-09-08T02:07:53.902Z,73.51
2023-09-08T02:08:53.874Z,73.13
2023-09-08T02:09:53.872Z,73.13
2023-09-08T02:10:53.904Z,73.61
2023-09-08T02:11:53.866Z,73.51
2023-09-08T02:12:53.875Z,73.32
2023-09-08T02:13:55.361Z,73.32
2023-09-08T02:14:53.996Z,73.80
2023-09-08T02:15:53.930Z,73.51
2023-09-08T02:16:53.914Z,74.29
2023-09-08T02:17:53.909Z,74.09
2023-09-08T02:18:53.913Z,73.99
2023-09-08T02:19:53.878Z,73.80
2023-09-08T02:20:53.888Z,74.92
2023-09-08T02:21:53.882Z,74.73
2023-09-08T02:22:53.878Z,74.73
2023-09-08T02:23:53.890Z,74.63
2023-09-08T02:24:53.880Z,74.76
2023-09-08T02:25:53.880Z,74.82
2023-09-08T02:26:53.902Z,74.76
2023-09-08T02:27:53.905Z,74.82
2023-09-08T02:28:53.885Z,74.54
2023-09-08T02:29:53.926Z,74.54
2023-09-08T02:30:53.884Z,74.96
2023-09-08T02:31:53.908Z,74.67
2023-09-08T02:32:53.973Z,74.96
2023-09-08T02:33:53.981Z,74.86
2023-09-08T02:34:53.989Z,74.96
2023-09-08T02:35:53.887Z,74.57
2023-09-08T02:36:53.889Z,74.57
2023-09-08T02:37:53.903Z,74.96
2023-09-08T02:38:53.894Z,74.96
2023-09-08T02:39:53.904Z,74.96
2023-09-08T02:40:53.898Z,74.96
2023-09-08T02:41:53.889Z,74.96
2023-09-08T02:42:53.959Z,74.76
2023-09-08T02:43:53.891Z,74.86
2023-09-08T02:44:53.896Z,74.82
2023-09-08T02:45:53.960Z,74.76
2023-09-08T02:46:53.969Z,74.92
2023-09-08T02:47:53.954Z,75.49
2023-09-08T02:48:53.932Z,75.40
2023-09-08T02:49:53.902Z,75.44
2023-09-08T02:50:53.901Z,75.79
2023-09-08T02:51:53.958Z,76.07
2023-09-08T02:52:53.901Z,75.59
2023-09-08T02:53:53.902Z,75.11
2023-09-08T02:54:53.968Z,75.49
2023-09-08T02:55:53.906Z,75.79
2023-09-08T02:56:53.926Z,75.59
2023-09-08T02:57:53.907Z,75.59
2023-09-08T02:58:53.922Z,75.88
2023-09-08T02:59:53.927Z,75.98
2023-09-08T03:00:53.912Z,75.88
2023-09-08T03:01:54.133Z,75.69
2023-09-08T03:02:54.053Z,76.07
2023-09-08T03:03:54.032Z,75.88
2023-09-08T03:04:53.955Z,76.46
2023-09-08T03:05:53.916Z,76.36
2023-09-08T03:06:53.922Z,76.17
2023-09-08T03:07:53.954Z,76.36
2023-09-08T03:08:53.924Z,76.75
2023-09-08T03:09:53.961Z,76.26
2023-09-08T03:10:53.915Z,76.65
2023-09-08T03:11:53.949Z,76.65
2023-09-08T03:12:53.921Z,76.84
2023-09-08T03:13:53.963Z,76.32
2023-09-08T03:14:53.940Z,76.90
2023-09-08T03:15:53.938Z,77.09
2023-09-08T03:16:53.951Z,77.19
2023-09-08T03:17:53.990Z,77.58
2023-09-08T03:18:53.922Z,77.38
2023-09-08T03:19:53.946Z,77.38
2023-09-08T03:20:53.916Z,77.76
2023-09-08T03:21:53.924Z,77.19
2023-09-08T03:22:53.926Z,78.06
2023-09-08T03:23:53.977Z,78.06
2023-09-08T03:24:53.924Z,77.86
2023-09-08T03:25:53.928Z,77.86
2023-09-08T03:26:53.952Z,78.06
2023-09-08T03:27:53.930Z,77.96
2023-09-08T03:28:53.951Z,78.06
2023-09-08T03:29:53.930Z,77.96
2023-09-08T03:30:53.956Z,78.06
2023-09-08T03:31:54.034Z,77.86
2023-09-08T03:32:53.990Z,78.06
2023-09-08T03:33:54.047Z,77.76
2023-09-08T03:34:53.937Z,77.86
2023-09-08T03:35:53.935Z,78.25
2023-09-08T03:36:53.953Z,78.53
2023-09-08T03:37:53.932Z,78.34
2023-09-08T03:38:53.936Z,78.44
2023-09-08T03:39:53.951Z,78.15
2023-09-08T03:40:53.934Z,78.30
2023-09-08T03:41:53.939Z,78.44
2023-09-08T03:42:53.997Z,78.53
2023-09-08T03:43:53.935Z,78.15
2023-09-08T03:44:53.930Z,78.25
2023-09-08T03:45:54.006Z,78.53
2023-09-08T03:46:53.959Z,78.69
2023-09-08T03:47:53.957Z,78.53
2023-09-08T03:48:53.940Z,78.88
2023-09-08T03:49:53.976Z,79.07
2023-09-08T03:50:53.938Z,79.27
2023-09-08T03:51:53.935Z,79.27
2023-09-08T03:52:53.941Z,78.98
2023-09-08T03:53:53.938Z,78.78
2023-09-08T03:54:53.936Z,79.07
2023-09-08T03:55:53.984Z,79.75
2023-09-08T03:56:53.934Z,79.84
2023-09-08T03:57:53.955Z,79.84
2023-09-08T03:58:53.984Z,79.65
2023-09-08T03:59:53.956Z,79.55
2023-09-08T04:00:53.962Z,80.13
2023-09-08T04:01:53.994Z,79.65
2023-09-08T04:02:53.987Z,79.94
2023-09-08T04:03:53.962Z,79.75
2023-09-08T04:04:53.969Z,79.84
2023-09-08T04:05:53.934Z,79.94
2023-09-08T04:06:53.956Z,80.13
2023-09-08T04:07:53.954Z,80.22
2023-09-08T04:08:53.972Z,80.04
2023-09-08T04:09:53.936Z,80.13
2023-09-08T04:10:53.938Z,80.22
2023-09-08T04:11:53.977Z,80.61
2023-09-08T04:12:53.938Z,80.96
2023-09-08T04:13:53.947Z,81.34
2023-09-08T04:14:53.962Z,80.86
2023-09-08T04:15:53.950Z,80.96
2023-09-08T04:16:53.935Z,81.43
2023-09-08T04:17:53.995Z,82.30
2023-09-08T04:18:56.508Z,81.92
2023-09-08T04:19:53.945Z,81.53
2023-09-08T04:20:53.991Z,81.15
2023-09-08T04:21:53.945Z,80.96
2023-09-08T04:22:53.941Z,81.53
2023-09-08T04:23:53.957Z,81.34
2023-09-08T04:24:53.937Z,81.15
2023-09-08T04:25:53.941Z,80.86
2023-09-08T04:26:53.940Z,80.86
2023-09-08T04:27:53.940Z,81.05
2023-09-08T04:28:53.945Z,80.66
2023-09-08T04:29:54.014Z,80.66
2023-09-08T04:30:53.958Z,80.86
2023-09-08T04:31:53.940Z,80.66
2023-09-08T04:32:53.971Z,80.96
2023-09-08T04:33:53.977Z,80.86
2023-09-08T04:34:53.962Z,80.76
2023-09-08T04:35:53.940Z,80.76
2023-09-08T04:36:53.958Z,81.05
2023-09-08T04:37:53.943Z,81.43
2023-09-08T04:38:53.946Z,81.15
2023-09-08T04:39:53.937Z,81.15
2023-09-08T04:40:53.956Z,81.05
2023-09-08T04:41:53.938Z,81.15
2023-09-08T04:42:53.938Z,81.15
2023-09-08T04:43:53.933Z,81.53
2023-09-08T04:44:53.934Z,81.43
2023-09-08T04:45:53.953Z,81.34
2023-09-08T04:46:53.961Z,81.15
2023-09-08T04:47:53.991Z,81.05
2023-09-08T04:48:53.960Z,81.05
2023-09-08T04:49:54.038Z,81.05
2023-09-08T04:50:53.963Z,81.05
2023-09-08T04:51:53.939Z,81.15
2023-09-08T04:52:53.943Z,80.86
2023-09-08T04:53:53.998Z,81.34
2023-09-08T04:54:53.948Z,81.24
2023-09-08T04:55:53.930Z,81.15
2023-09-08T04:56:55.359Z,81.53
2023-09-08T04:57:53.932Z,81.43
2023-09-08T04:58:53.935Z,81.53
2023-09-08T04:59:53.994Z,81.34
2023-09-08T05:00:53.957Z,80.96
2023-09-08T05:01:53.930Z,81.15
2023-09-08T05:02:54.068Z,80.96
2023-09-08T05:03:54.123Z,80.96
2023-09-08T05:04:53.938Z,81.43
2023-09-08T05:05:53.992Z,81.43
2023-09-08T05:06:53.958Z,81.43
2023-09-08T05:07:53.927Z,80.86
2023-09-08T05:08:54.015Z,80.96
2023-09-08T05:09:56.906Z,81.34
2023-09-08T05:10:53.931Z,81.15
2023-09-08T05:11:53.987Z,81.34
2023-09-08T05:12:53.931Z,81.34
2023-09-08T05:13:53.929Z,81.43
2023-09-08T05:14:53.926Z,81.63
2023-09-08T05:15:53.938Z,81.05
2023-09-08T05:16:53.992Z,81.05
2023-09-08T05:17:53.993Z,81.34
2023-09-08T05:18:53.973Z,81.05
2023-09-08T05:19:53.928Z,80.96
2023-09-08T05:20:53.924Z,81.24
2023-09-08T05:21:54.004Z,81.05
2023-09-08T05:22:53.948Z,81.34
2023-09-08T05:23:53.922Z,81.43
2023-09-08T05:24:53.926Z,81.34
2023-09-08T05:25:53.922Z,81.43
2023-09-08T05:26:53.924Z,81.34
2023-09-08T05:27:53.922Z,81.15
2023-09-08T05:28:53.919Z,81.15
2023-09-08T05:29:53.920Z,81.24
2023-09-08T05:30:53.947Z,80.86
2023-09-08T05:31:53.929Z,81.43
2023-09-08T05:32:53.974Z,81.43
2023-09-08T05:33:53.930Z,80.86
2023-09-08T05:34:53.921Z,81.34
2023-09-08T05:35:53.922Z,81.24
2023-09-08T05:36:53.947Z,80.96
2023-09-08T05:37:53.919Z,81.43
2023-09-08T05:38:53.950Z,81.34
2023-09-08T05:39:53.957Z,81.24
2023-09-08T05:40:53.923Z,81.24
2023-09-08T05:41:53.923Z,81.53
2023-09-08T05:42:53.929Z,80.86
2023-09-08T05:43:53.925Z,80.96
2023-09-08T05:44:53.915Z,81.15
2023-09-08T05:45:53.915Z,81.43
2023-09-08T05:46:53.996Z,81.53
2023-09-08T05:47:53.975Z,81.34
2023-09-08T05:48:53.916Z,81.05
2023-09-08T05:49:53.928Z,81.92
2023-09-08T05:50:53.918Z,80.96
2023-09-08T05:51:53.920Z,81.15
2023-09-08T05:52:53.915Z,81.67
2023-09-08T05:53:53.950Z,81.53
2023-09-08T05:54:53.936Z,81.57
2023-09-08T05:55:53.968Z,82.05
2023-09-08T05:56:53.918Z,81.96
2023-09-08T05:57:53.922Z,82.15
2023-09-08T05:58:53.909Z,82.05
2023-09-08T05:59:53.967Z,81.57
2023-09-08T06:00:53.916Z,81.48
2023-09-08T06:01:53.949Z,81.19
2023-09-08T06:02:54.012Z,81.48
2023-09-08T06:03:53.965Z,81.38
2023-09-08T06:04:53.932Z,81.57
2023-09-08T06:05:53.948Z,81.67
2023-09-08T06:06:53.953Z,81.67
2023-09-08T06:08:05.752Z,81.19
2023-09-08T06:08:53.914Z,81.09
2023-09-08T06:09:53.943Z,80.90
2023-09-08T06:10:53.936Z,81.48
2023-09-08T06:11:53.907Z,81.32
2023-09-08T06:12:53.942Z,80.94
2023-09-08T06:13:53.921Z,81.52
2023-09-08T06:14:53.908Z,81.32
2023-09-08T06:15:53.930Z,81.04
2023-09-08T06:16:54.000Z,81.04
2023-09-08T06:17:53.990Z,81.61
2023-09-08T06:18:53.911Z,81.32
2023-09-08T06:19:53.918Z,80.94
2023-09-08T06:20:53.956Z,81.13
2023-09-08T06:21:53.915Z,80.55
2023-09-08T06:22:53.909Z,80.36
2023-09-08T06:23:53.981Z,79.98
2023-09-08T06:24:53.907Z,80.07
2023-09-08T06:25:53.904Z,80.17
2023-09-08T06:26:53.992Z,80.17
2023-09-08T06:27:53.913Z,80.02
2023-09-08T06:28:53.920Z,79.82
2023-09-08T06:29:55.084Z,79.53
2023-09-08T06:30:53.937Z,78.96
2023-09-08T06:31:53.920Z,79.73
2023-09-08T06:32:53.997Z,79.73
2023-09-08T06:33:54.040Z,80.02
2023-09-08T06:34:53.912Z,79.73
2023-09-08T06:35:53.906Z,79.82
2023-09-08T06:36:53.915Z,79.82
2023-09-08T06:37:53.937Z,79.92
2023-09-08T06:38:53.911Z,79.82
2023-09-08T06:39:53.908Z,79.35
2023-09-08T06:40:53.916Z,78.48
2023-09-08T06:41:53.914Z,78.48
2023-09-08T06:42:55.323Z,78.67
2023-09-08T06:43:53.917Z,78.58
2023-09-08T06:44:53.914Z,78.19
2023-09-08T06:45:53.938Z,78.58
2023-09-08T06:46:53.916Z,78.61
2023-09-08T06:47:54.016Z,78.52
2023-09-08T06:48:53.916Z,78.77
2023-09-08T06:49:54.020Z,78.52
2023-09-08T06:50:53.943Z,78.23
2023-09-08T06:51:53.916Z,78.33
2023-09-08T06:52:53.926Z,78.42
2023-09-08T06:53:53.967Z,78.61
2023-09-08T06:54:53.929Z,78.42
2023-09-08T06:55:53.926Z,78.71
2023-09-08T06:56:53.919Z,78.13
2023-09-08T06:57:53.930Z,78.33
2023-09-08T06:58:54.032Z,78.13
2023-09-08T06:59:53.924Z,78.23
2023-09-08T07:00:54.011Z,78.13
2023-09-08T07:01:54.086Z,78.13
2023-09-08T07:02:54.178Z,77.94
2023-09-08T07:03:54.123Z,77.26
2023-09-08T07:04:54.041Z,77.56
2023-09-08T07:05:53.920Z,77.46
2023-09-08T07:06:53.951Z,77.56
2023-09-08T07:07:53.926Z,77.11
2023-09-08T07:08:53.930Z,77.50
2023-09-08T07:09:53.924Z,78.65
2023-09-08T07:10:53.957Z,78.27
2023-09-08T07:11:53.927Z,77.50
2023-09-08T07:12:53.934Z,76.92
2023-09-08T07:13:53.933Z,77.31
2023-09-08T07:14:54.034Z,76.63
2023-09-08T07:15:53.927Z,76.73
2023-09-08T07:16:54.091Z,76.82
2023-09-08T07:17:53.976Z,76.63
2023-09-08T07:18:53.933Z,76.63
2023-09-08T07:19:53.936Z,75.99
2023-09-08T07:20:53.938Z,75.80
2023-09-08T07:21:53.948Z,76.09
2023-09-08T07:22:54.001Z,75.23
2023-09-08T07:23:53.943Z,75.03
2023-09-08T07:24:53.951Z,75.13
2023-09-08T07:25:53.946Z,75.51
2023-09-08T07:26:53.944Z,75.51
2023-09-08T07:27:53.954Z,75.13
2023-09-08T07:28:53.940Z,76.18
2023-09-08T07:29:53.941Z,76.09
2023-09-08T07:30:54.138Z,75.93
2023-09-08T07:31:54.025Z,75.90
2023-09-08T07:32:54.001Z,76.13
2023-09-08T07:33:53.943Z,75.93
2023-09-08T07:34:54.030Z,76.09
2023-09-08T07:35:53.947Z,76.13
2023-09-08T07:36:53.946Z,75.36
2023-09-08T07:37:54.036Z,75.74
2023-09-08T07:38:53.952Z,75.16
2023-09-08T07:39:53.953Z,74.78
2023-09-08T07:40:53.963Z,75.55
2023-09-08T07:41:53.961Z,74.88
2023-09-08T07:42:53.960Z,74.78
2023-09-08T07:43:54.069Z,75.07
2023-09-08T07:44:53.965Z,74.88
2023-09-08T07:45:53.997Z,74.78
2023-09-08T07:46:53.987Z,74.01
2023-09-08T07:47:54.049Z,74.10
2023-09-08T07:48:53.972Z,74.40
2023-09-08T07:49:53.964Z,74.91
2023-09-08T07:50:53.980Z,74.91
2023-09-08T07:51:53.995Z,74.24
2023-09-08T07:52:53.988Z,74.52
2023-09-08T07:53:54.017Z,73.27
2023-09-08T07:54:53.979Z,73.37
2023-09-08T07:55:53.973Z,73.57
2023-09-08T07:56:54.043Z,73.66
2023-09-08T07:57:53.995Z,73.89
2023-09-08T07:58:53.991Z,73.69
2023-09-08T07:59:53.986Z,73.31
2023-09-08T08:00:53.989Z,73.69
2023-09-08T08:01:54.036Z,72.73
2023-09-08T08:02:54.087Z,72.77
2023-09-08T08:03:54.037Z,73.41
2023-09-08T08:04:53.991Z,73.60
2023-09-08T08:05:54.052Z,72.86
2023-09-08T08:06:54.023Z,72.83
2023-09-08T08:07:54.003Z,72.44
2023-09-08T08:08:54.045Z,72.54
2023-09-08T08:09:54.003Z,72.86
2023-09-08T08:10:54.006Z,73.15
2023-09-08T08:11:54.072Z,72.58
2023-09-08T08:12:54.006Z,72.19
2023-09-08T08:13:54.013Z,72.58
2023-09-08T08:14:54.040Z,71.80
2023-09-08T08:15:54.026Z,72.96
2023-09-08T08:16:54.012Z,72.67
2023-09-08T08:17:54.081Z,72.00
2023-09-08T08:18:54.171Z,71.61
2023-09-08T08:19:54.029Z,71.61
2023-09-08T08:20:54.028Z,72.38
2023-09-08T08:21:54.041Z,72.28
2023-09-08T08:22:54.039Z,71.64
2023-09-08T08:23:54.031Z,71.84
2023-09-08T08:24:54.045Z,72.32
2023-09-08T08:25:54.050Z,71.55
2023-09-08T08:26:54.043Z,71.55
2023-09-08T08:27:54.072Z,71.55
2023-09-08T08:28:54.045Z,71.55
2023-09-08T08:29:54.043Z,72.42
2023-09-08T08:30:54.077Z,72.32
2023-09-08T08:31:54.082Z,72.03
2023-09-08T08:32:54.097Z,72.42
2023-09-08T08:33:54.068Z,72.26
2023-09-08T08:34:54.087Z,72.03
2023-09-08T08:35:54.071Z,72.26
2023-09-08T08:36:54.093Z,71.48
2023-09-08T08:37:54.086Z,70.81
2023-09-08T08:38:54.071Z,70.90
2023-09-08T08:39:54.082Z,70.81
2023-09-08T08:40:54.093Z,71.30
2023-09-08T08:41:54.084Z,70.90
2023-09-08T08:42:54.080Z,70.42
2023-09-08T08:43:54.083Z,69.84
2023-09-08T08:44:54.096Z,70.14
2023-09-08T08:45:54.105Z,70.42
2023-09-08T08:46:54.125Z,69.07
2023-09-08T08:47:54.112Z,69.36
2023-09-08T08:48:54.101Z,69.20
2023-09-08T08:49:54.115Z,69.20
2023-09-08T08:50:54.146Z,69.40
2023-09-08T08:51:54.103Z,69.30
2023-09-08T08:52:54.103Z,68.82
2023-09-08T08:53:54.109Z,69.10
2023-09-08T08:54:54.201Z,67.85
2023-09-08T08:55:54.119Z,67.56
2023-09-08T08:56:54.175Z,68.82
2023-09-08T08:57:54.117Z,67.75
2023-09-08T08:58:54.222Z,67.79
2023-09-08T08:59:54.187Z,68.17
2023-09-08T09:00:54.128Z,67.56
2023-09-08T09:01:54.132Z,67.21
2023-09-08T09:03:11.678Z,67.01
2023-09-08T09:03:54.259Z,66.63
2023-09-08T09:04:54.158Z,66.05
2023-09-08T09:05:54.152Z,65.85
2023-09-08T09:06:54.167Z,66.43
2023-09-08T09:07:54.148Z,66.37
2023-09-08T09:08:54.150Z,64.04
2023-09-08T09:09:54.183Z,64.53
2023-09-08T09:10:54.157Z,65.11
2023-09-08T09:11:54.167Z,65.30
2023-09-08T09:12:54.160Z,65.40
2023-09-08T09:13:54.174Z,63.85
2023-09-08T09:14:54.222Z,63.66
2023-09-08T09:15:54.184Z,64.14
2023-09-08T09:16:54.181Z,64.34
2023-09-08T09:17:54.919Z,64.53
2023-09-08T09:18:54.219Z,64.72
2023-09-08T09:19:54.195Z,65.01
2023-09-08T09:20:54.197Z,65.30
2023-09-08T09:21:54.203Z,65.79
2023-09-08T09:22:54.332Z,65.92
2023-09-08T09:23:55.590Z,65.34
2023-09-08T09:24:54.413Z,64.47
2023-09-08T09:25:54.240Z,64.17
2023-09-08T09:26:54.225Z,64.66
2023-09-08T09:27:54.238Z,65.53
2023-09-08T09:28:54.222Z,65.24
2023-09-08T09:29:54.225Z,65.34
2023-09-08T09:30:54.240Z,65.34
2023-09-08T09:31:54.237Z,64.89
2023-09-08T09:32:54.309Z,64.27
2023-09-08T09:33:54.273Z,64.69
2023-09-08T09:34:54.411Z,63.31
2023-09-08T09:35:54.276Z,63.62
2023-09-08T09:36:54.251Z,63.43
2023-09-08T09:37:54.274Z,63.53
2023-09-08T09:38:54.299Z,63.34
2023-09-08T09:39:54.314Z,62.07
2023-09-08T09:40:54.269Z,60.04
2023-09-08T09:41:54.272Z,60.46
2023-09-08T09:42:54.285Z,59.97
2023-09-08T09:43:54.281Z,58.62
2023-09-08T09:44:54.305Z,59.00
2023-09-08T09:45:54.319Z,59.49
2023-09-08T09:46:54.291Z,60.17
2023-09-08T09:47:54.396Z,60.75
2023-09-08T09:48:54.298Z,61.62
2023-09-08T09:49:54.306Z,62.30
2023-09-08T09:50:54.316Z,60.91
2023-09-08T09:51:54.317Z,60.85
2023-09-08T09:52:54.316Z,59.39
2023-09-08T09:53:54.342Z,59.10
2023-09-08T09:54:54.380Z,59.30
2023-09-08T09:55:54.353Z,60.36
2023-09-08T09:56:54.331Z,59.39
2023-09-08T09:57:54.338Z,60.07
2023-09-08T09:58:54.442Z,60.27
2023-09-08T09:59:54.351Z,60.36
2023-09-08T10:00:54.368Z,60.00
2023-09-08T10:01:54.465Z,59.69
2023-09-08T10:02:54.410Z,60.07
2023-09-08T10:03:54.434Z,60.46
2023-09-08T10:04:54.366Z,61.14
2023-09-08T10:05:54.378Z,61.62
2023-09-08T10:06:54.386Z,61.62
2023-09-08T10:07:54.378Z,62.01
2023-09-08T10:08:54.392Z,61.07
2023-09-08T10:09:54.392Z,60.20
2023-09-08T10:10:54.427Z,60.30
2023-09-08T10:11:54.400Z,58.94
2023-09-08T10:12:54.400Z,59.61
2023-09-08T10:13:54.408Z,58.39
2023-09-08T10:14:54.411Z,58.00
2023-09-08T10:15:54.421Z,58.39
2023-09-08T10:16:54.435Z,59.13
2023-09-08T10:17:54.475Z,58.16
2023-09-08T10:18:54.888Z,58.55
2023-09-08T10:19:54.435Z,59.16
2023-09-08T10:20:54.443Z,59.36
2023-09-08T10:21:54.492Z,57.70
2023-09-08T10:22:54.447Z,57.90
2023-09-08T10:23:54.456Z,58.09
2023-09-08T10:24:54.458Z,56.93
2023-09-08T10:25:54.470Z,57.22
2023-09-08T10:26:54.504Z,57.90
2023-09-08T10:27:54.479Z,57.90
2023-09-08T10:28:54.476Z,58.00
2023-09-08T10:29:54.482Z,58.22
2023-09-08T10:30:54.505Z,57.90
2023-09-08T10:31:54.539Z,57.90
2023-09-08T10:32:54.549Z,55.87
2023-09-08T10:33:54.550Z,55.57
2023-09-08T10:34:54.528Z,56.35
2023-09-08T10:35:54.513Z,57.25
2023-09-08T10:36:54.509Z,56.09
2023-09-08T10:37:54.525Z,55.99
2023-09-08T10:38:54.528Z,56.57
2023-09-08T10:39:54.556Z,56.86
2023-09-08T10:40:54.541Z,56.40
2023-09-08T10:41:54.541Z,54.56
2023-09-08T10:42:54.583Z,55.53
2023-09-08T10:43:54.587Z,54.94
2023-09-08T10:44:54.551Z,54.85
2023-09-08T10:45:54.609Z,55.53
2023-09-08T10:46:54.584Z,55.63
2023-09-08T10:47:54.599Z,55.82
2023-09-08T10:48:54.684Z,54.94
2023-09-08T10:49:56.713Z,54.36
2023-09-08T10:50:54.589Z,54.58
2023-09-08T10:51:54.643Z,55.73
2023-09-08T10:52:54.593Z,55.85
2023-09-08T10:53:54.609Z,55.73
2023-09-08T10:54:54.612Z,56.21
2023-09-08T10:56:10.914Z,55.82
2023-09-08T10:56:54.712Z,55.63
2023-09-08T10:57:54.622Z,55.92
2023-09-08T10:58:54.662Z,55.75
2023-09-08T10:59:54.630Z,55.85
2023-09-08T11:00:54.643Z,54.29
2023-09-08T11:01:54.663Z,53.42
2023-09-08T11:02:54.730Z,53.25
2023-09-08T11:03:54.864Z,53.45
2023-09-08T11:04:54.678Z,54.49
2023-09-08T11:05:54.702Z,53.64
2023-09-08T11:06:54.670Z,54.20
2023-09-08T11:07:54.709Z,52.86
2023-09-08T11:08:54.740Z,53.54
2023-09-08T11:09:54.692Z,53.16
2023-09-08T11:10:54.691Z,52.28
2023-09-08T11:11:54.736Z,53.16
2023-09-08T11:12:54.709Z,52.47
2023-09-08T11:13:54.709Z,52.57
2023-09-08T11:14:54.787Z,53.16
2023-09-08T11:15:54.765Z,53.45
2023-09-08T11:16:54.728Z,51.70
2023-09-08T11:17:54.804Z,51.50
2023-09-08T11:18:54.770Z,51.89
2023-09-08T11:19:54.746Z,53.06
2023-09-08T11:20:54.806Z,54.10
2023-09-08T11:21:54.754Z,53.91
2023-09-08T11:22:54.762Z,51.79
2023-09-08T11:23:54.777Z,51.31
2023-09-08T11:24:54.821Z,52.37
2023-09-08T11:25:54.793Z,51.72
2023-09-08T11:26:54.797Z,51.50
2023-09-08T11:27:54.828Z,52.01
2023-09-08T11:28:54.818Z,52.01
2023-09-08T11:29:54.808Z,51.62
2023-09-08T11:30:54.875Z,51.99
2023-09-08T11:31:54.895Z,52.96
2023-09-08T11:32:54.862Z,52.69
2023-09-08T11:33:54.850Z,51.72
2023-09-08T11:34:54.847Z,52.11
2023-09-08T11:35:57.591Z,52.01
2023-09-08T11:36:54.894Z,52.31
2023-09-08T11:37:54.873Z,50.85
2023-09-08T11:38:54.882Z,51.14
2023-09-08T11:39:54.920Z,50.95
2023-09-08T11:40:54.868Z,51.72
2023-09-08T11:41:54.892Z,52.59
2023-09-08T11:42:54.892Z,51.53
2023-09-08T11:43:54.925Z,52.79
2023-09-08T11:44:54.896Z,52.79
2023-09-08T11:45:54.988Z,51.53
2023-09-08T11:46:55.120Z,51.33
2023-09-08T11:47:54.958Z,51.82
2023-09-08T11:48:54.966Z,51.89
2023-09-08T11:49:54.928Z,51.60
2023-09-08T11:50:54.940Z,51.50
2023-09-08T11:51:55.001Z,52.98
2023-09-08T11:52:54.946Z,52.59
2023-09-08T11:53:54.949Z,52.69
2023-09-08T11:55:06.631Z,53.35
2023-09-08T11:55:55.057Z,52.98
2023-09-08T11:56:54.967Z,52.96
2023-09-08T11:57:54.969Z,52.37
2023-09-08T11:58:54.992Z,52.67
2023-09-08T11:59:54.988Z,52.96
2023-09-08T12:00:54.998Z,53.25
2023-09-08T12:01:55.040Z,53.16
2023-09-08T12:02:55.056Z,52.67
2023-09-08T12:03:55.126Z,52.96
2023-09-08T12:04:55.020Z,52.67
2023-09-08T12:05:55.023Z,53.35
2023-09-08T12:06:55.040Z,51.92
2023-09-08T12:07:55.044Z,52.89
2023-09-08T12:08:55.040Z,52.21
2023-09-08T12:09:55.078Z,50.75
2023-09-08T12:10:55.050Z,50.46
2023-09-08T12:11:55.060Z,50.56
2023-09-08T12:12:55.097Z,50.95
2023-09-08T12:13:55.068Z,51.04
2023-09-08T12:14:55.072Z,50.75
2023-09-08T12:15:55.148Z,50.68
2023-09-08T12:16:55.110Z,50.16
2023-09-08T12:17:55.118Z,49.78
2023-09-08T12:18:55.163Z,49.58
2023-09-08T12:19:55.108Z,50.46
2023-09-08T12:20:55.116Z,49.68
2023-09-08T12:21:55.138Z,49.97
2023-09-08T12:22:55.127Z,50.75
2023-09-08T12:23:55.126Z,50.95
2023-09-08T12:24:55.137Z,51.04
2023-09-08T12:25:55.148Z,50.65
2023-09-08T12:26:55.159Z,51.14
2023-09-08T12:27:55.183Z,51.72
2023-09-08T12:28:55.173Z,48.32
2023-09-08T12:29:55.173Z,48.03
2023-09-08T12:30:55.262Z,49.78
2023-09-08T12:31:55.255Z,49.39
2023-09-08T12:32:55.217Z,49.61
2023-09-08T12:33:55.243Z,49.02
2023-09-08T12:34:55.243Z,49.71
2023-09-08T12:35:55.212Z,50.56
2023-09-08T12:36:55.243Z,50.16
2023-09-08T12:37:55.220Z,49.39
2023-09-08T12:38:55.221Z,49.97
2023-09-08T12:39:55.255Z,49.78
2023-09-08T12:40:55.231Z,49.97
2023-09-08T12:41:56.219Z,49.68
2023-09-08T12:43:05.743Z,49.32
2023-09-08T12:43:55.254Z,49.22
2023-09-08T12:44:55.289Z,48.73
2023-09-08T12:45:55.456Z,48.73
2023-09-08T12:46:55.299Z,48.63
2023-09-08T12:47:55.302Z,48.44
2023-09-08T12:48:55.281Z,48.15
2023-09-08T12:49:55.358Z,48.54
2023-09-08T12:50:55.331Z,48.63
2023-09-08T12:51:55.309Z,48.93
2023-09-08T12:52:55.307Z,49.02